Terminal Aerodrome Forecast
Issued by NWS Pittsburgh, PA

Home | Current Version | Previous Version | Text Only | Print | Product List | Glossary On
Versions: 1 2 3 4 5 6 7 8 9 10 11 12 13 14 15 16 17 18 19 20 21 22 23 24 25 26
000
FTUS41 KPBZ 101128
TAFPIT
TAF
KPIT 101128Z 1012/1118 25007KT P6SM -SHSN SCT015 BKN050
     FM101500 26007KT P6SM BKN100
     FM110600 20003KT P6SM OVC025
     FM110800 18003KT 2SM -SN OVC020
     FM111500 16006KT P6SM VCSH OVC040=

USA.gov is the U.S. government's official web portal to all federal, state and local government web resources and services.